Time;durP1;ratioP1;P1;durP2;ratioP2;P2;SDS_P1;SDS_P2;PMS_P1;PMS_P2;Temp;Humidity;BMP_temperature;BMP_pressure;BME280_temperature;BME280_humidity;BME280_pressure;Samples;Min_cycle;Max_cycle;Signal;HPM_P1;HPM_P2
2021/11/18 00:00:59;;;;;;;14.52;4.65;;;;;;;;;;5100037;28;20016;-71
2021/11/18 00:03:26;;;;;;;12.23;4.30;;;;;;;;;;5081874;28;20032;-71
2021/11/18 00:05:52;;;;;;;21.90;4.75;;;;;;;;;;5099419;28;20059;-71
2021/11/18 00:08:18;;;;;;;16.02;4.03;;;;;;;;;;5098536;28;20024;-71
2021/11/18 00:10:43;;;;;;;18.38;5.13;;;;;;;;;;5081804;28;20110;-71
2021/11/18 00:13:11;;;;;;;15.48;4.88;;;;;;;;;;5099507;28;20051;-71
2021/11/18 00:15:37;;;;;;;21.30;4.80;;;;;;;;;;5099923;28;20441;-71
2021/11/18 00:18:05;;;;;;;10.88;4.45;;;;;;;;;;5064943;28;20067;-71
2021/11/18 00:20:33;;;;;;;14.13;4.68;;;;;;;;;;5099717;28;20069;-71
2021/11/18 00:22:59;;;;;;;7.93;3.28;;;;;;;;;;5099544;28;20318;-71
2021/11/18 00:25:25;;;;;;;15.13;3.83;;;;;;;;;;5099553;28;20066;-71
2021/11/18 00:27:51;;;;;;;12.27;4.28;;;;;;;;;;5099538;28;20020;-71
2021/11/18 00:30:17;;;;;;;14.38;5.68;;;;;;;;;;5099565;28;20027;-71
2021/11/18 00:32:44;;;;;;;20.08;5.32;;;;;;;;;;5099422;28;20015;-71
2021/11/18 00:35:11;;;;;;;18.90;4.78;;;;;;;;;;5081408;28;20031;-71
2021/11/18 00:37:37;;;;;;;7.82;4.10;;;;;;;;;;5099359;28;20337;-71
2021/11/18 00:40:05;;;;;;;17.88;5.20;;;;;;;;;;5099270;28;20016;-71
2021/11/18 00:42:31;;;;;;;14.05;6.38;;;;;;;;;;5099262;28;20359;-71
2021/11/18 00:44:57;;;;;;;15.43;5.78;;;;;;;;;;5081222;28;20429;-71
2021/11/18 00:47:24;;;;;;;16.70;5.80;;;;;;;;;;5080697;28;20397;-71
2021/11/18 00:49:50;;;;;;;20.15;6.97;;;;;;;;;;5099097;28;20098;-71
2021/11/18 00:52:16;;;;;;;10.93;5.60;;;;;;;;;;5081075;28;20325;-71
2021/11/18 00:54:42;;;;;;;12.77;5.43;;;;;;;;;;5080993;28;20336;-71
2021/11/18 00:57:08;;;;;;;20.42;8.20;;;;;;;;;;5099023;28;20413;-71
2021/11/18 00:59:34;;;;;;;16.90;6.80;;;;;;;;;;5098888;28;20016;-71
2021/11/18 01:02:00;;;;;;;22.23;8.13;;;;;;;;;;5098873;28;20073;-71
2021/11/18 01:04:28;;;;;;;26.88;9.80;;;;;;;;;;5080594;28;20032;-71
2021/11/18 01:06:54;;;;;;;31.10;12.43;;;;;;;;;;5098525;28;20016;-71
2021/11/18 01:09:21;;;;;;;27.60;12.85;;;;;;;;;;5098327;28;20444;-71
2021/11/18 01:11:47;;;;;;;35.35;13.45;;;;;;;;;;5063569;28;20409;-71
2021/11/18 01:14:14;;;;;;;31.85;10.48;;;;;;;;;;5079606;28;20074;-71
2021/11/18 01:16:42;;;;;;;27.90;10.90;;;;;;;;;;5063359;28;20020;-71
2021/11/18 01:19:08;;;;;;;35.55;12.20;;;;;;;;;;5097807;28;20111;-71
2021/11/18 01:21:35;;;;;;;29.35;12.82;;;;;;;;;;5097318;28;20024;-71
2021/11/18 01:24:01;;;;;;;25.55;9.57;;;;;;;;;;5096595;28;20045;-71
2021/11/18 01:26:27;;;;;;;23.02;10.25;;;;;;;;;;5077888;28;20023;-71
2021/11/18 01:28:53;;;;;;;22.23;9.38;;;;;;;;;;5062142;28;20020;-71
2021/11/18 01:31:19;;;;;;;41.30;9.52;;;;;;;;;;5096147;28;20099;-71
2021/11/18 01:33:46;;;;;;;19.67;9.38;;;;;;;;;;5061094;28;20016;-71
2021/11/18 01:36:12;;;;;;;27.45;9.02;;;;;;;;;;5096613;28;20073;-71
2021/11/18 01:38:38;;;;;;;29.45;12.07;;;;;;;;;;5077595;28;20028;-69
2021/11/18 01:41:05;;;;;;;36.00;15.48;;;;;;;;;;5095211;28;20103;-71
2021/11/18 01:43:34;;;;;;;41.72;15.77;;;;;;;;;;5061667;28;20043;-71
2021/11/18 01:45:59;;;;;;;32.55;13.43;;;;;;;;;;5078177;28;20020;-71
2021/11/18 01:48:25;;;;;;;40.72;17.08;;;;;;;;;;5096986;28;20028;-71
2021/11/18 01:50:52;;;;;;;43.20;16.35;;;;;;;;;;5096586;28;20341;-71
2021/11/18 01:53:21;;;;;;;43.10;17.45;;;;;;;;;;5097266;28;20016;-71
2021/11/18 01:55:47;;;;;;;48.58;15.90;;;;;;;;;;5096328;28;20024;-72
2021/11/18 01:58:18;;;;;;;44.80;19.88;;;;;;;;;;5078259;28;20048;-71
2021/11/18 02:00:55;;;;;;;44.65;18.25;;;;;;;;;;5078820;28;20016;-71
2021/11/18 02:03:21;;;;;;;52.13;18.08;;;;;;;;;;5096505;28;20024;-71
2021/11/18 02:06:23;;;;;;;49.13;17.13;;;;;;;;;;5077978;28;20062;-71
2021/11/18 02:08:49;;;;;;;52.08;18.42;;;;;;;;;;5014561;28;20024;-71
2021/11/18 02:11:35;;;;;;;39.83;17.92;;;;;;;;;;5079474;28;20031;-71
2021/11/18 02:14:02;;;;;;;48.15;16.90;;;;;;;;;;5096191;28;20047;-71
2021/11/18 02:16:29;;;;;;;46.20;17.95;;;;;;;;;;5096473;28;20065;-69
2021/11/18 02:18:55;;;;;;;45.53;19.05;;;;;;;;;;5096024;28;20012;-71
2021/11/18 02:21:21;;;;;;;39.03;17.50;;;;;;;;;;5095765;28;20429;-71
2021/11/18 02:23:57;;;;;;;39.67;18.45;;;;;;;;;;5096318;28;20118;-71
2021/11/18 02:26:25;;;;;;;38.85;18.45;;;;;;;;;;5096280;28;20024;-71
2021/11/18 02:28:52;;;;;;;50.50;19.17;;;;;;;;;;5077776;28;20027;-71
2021/11/18 02:31:24;;;;;;;44.30;18.58;;;;;;;;;;5077642;28;20071;-71
2021/11/18 02:33:50;;;;;;;39.67;18.08;;;;;;;;;;5095261;28;20085;-71
2021/11/18 02:36:16;;;;;;;48.88;20.75;;;;;;;;;;5077406;28;20024;-71
2021/11/18 02:38:42;;;;;;;62.00;24.83;;;;;;;;;;5077308;28;20325;-71
2021/11/18 02:41:10;;;;;;;50.00;24.67;;;;;;;;;;5093919;28;20020;-71
2021/11/18 02:43:36;;;;;;;84.07;33.15;;;;;;;;;;5076834;28;20032;-71
2021/11/18 02:46:03;;;;;;;88.88;40.53;;;;;;;;;;5094268;28;20027;-71
2021/11/18 02:48:29;;;;;;;109.07;43.95;;;;;;;;;;5077264;28;20024;-72
2021/11/18 02:50:57;;;;;;;122.63;49.70;;;;;;;;;;5093652;28;20103;-71
2021/11/18 02:53:24;;;;;;;129.77;58.35;;;;;;;;;;5094318;28;20482;-72
2021/11/18 02:55:51;;;;;;;95.57;44.22;;;;;;;;;;5074607;28;20008;-71
2021/11/18 02:58:18;;;;;;;107.72;39.55;;;;;;;;;;5094370;28;20107;-71
2021/11/18 03:00:45;;;;;;;78.85;34.03;;;;;;;;;;5074814;28;20016;-70
2021/11/18 03:03:12;;;;;;;81.90;33.90;;;;;;;;;;5075055;28;20038;-71
2021/11/18 03:05:38;;;;;;;81.80;32.13;;;;;;;;;;5075956;28;20069;-70
2021/11/18 03:08:05;;;;;;;69.35;29.92;;;;;;;;;;5099750;22;20048;-71
2021/11/18 03:10:31;;;;;;;51.03;21.27;;;;;;;;;;5090042;28;20325;-71
2021/11/18 03:12:58;;;;;;;71.22;25.83;;;;;;;;;;5090395;28;20028;-71
2021/11/18 03:15:25;;;;;;;53.92;23.20;;;;;;;;;;5092507;28;20035;-71
2021/11/18 03:17:52;;;;;;;44.55;22.25;;;;;;;;;;5092416;28;20119;-72
2021/11/18 03:20:20;;;;;;;37.03;17.02;;;;;;;;;;5075777;28;20020;-71
2021/11/18 03:22:47;;;;;;;37.13;16.33;;;;;;;;;;5092469;28;20016;-71
2021/11/18 03:25:15;;;;;;;36.65;16.90;;;;;;;;;;5093303;28;20024;-72
2021/11/18 03:27:42;;;;;;;45.65;20.02;;;;;;;;;;5076715;28;20023;-72
2021/11/18 03:30:10;;;;;;;52.15;23.48;;;;;;;;;;5076815;28;20028;-72
2021/11/18 03:32:38;;;;;;;60.28;26.27;;;;;;;;;;5094720;28;20454;-72
2021/11/18 03:35:05;;;;;;;77.63;30.45;;;;;;;;;;5076161;28;20414;-71
2021/11/18 03:37:32;;;;;;;67.55;29.50;;;;;;;;;;5094962;28;20012;-72
2021/11/18 03:40:03;;;;;;;60.80;27.08;;;;;;;;;;5094315;28;20111;-72
2021/11/18 03:42:32;;;;;;;58.67;25.17;;;;;;;;;;5078247;28;20023;-72
2021/11/18 03:45:02;;;;;;;62.47;25.65;;;;;;;;;;5079947;28;20035;-72
2021/11/18 03:47:32;;;;;;;59.92;27.08;;;;;;;;;;5097011;28;20166;-72
2021/11/18 03:49:59;;;;;;;51.50;21.70;;;;;;;;;;5079923;28;20024;-72
2021/11/18 03:52:26;;;;;;;56.53;20.67;;;;;;;;;;5078989;28;20035;-72
2021/11/18 03:54:53;;;;;;;47.70;18.75;;;;;;;;;;5095627;28;20036;-73
2021/11/18 03:57:20;;;;;;;41.70;17.05;;;;;;;;;;5096290;28;20290;-72
2021/11/18 03:59:48;;;;;;;46.83;18.80;;;;;;;;;;5097700;28;20031;-72
2021/11/18 04:02:15;;;;;;;52.70;19.80;;;;;;;;;;5079648;28;20028;-72
2021/11/18 04:04:48;;;;;;;47.05;21.13;;;;;;;;;;5097039;28;20067;-71
2021/11/18 04:07:14;;;;;;;46.65;21.45;;;;;;;;;;5098288;28;20024;-72
2021/11/18 04:09:42;;;;;;;50.30;19.42;;;;;;;;;;5079618;28;20016;-72
2021/11/18 04:12:09;;;;;;;62.25;24.52;;;;;;;;;;5095762;28;20020;-71
2021/11/18 04:14:36;;;;;;;53.75;22.20;;;;;;;;;;5096250;28;20055;-72
2021/11/18 04:17:03;;;;;;;32.17;16.83;;;;;;;;;;5097003;28;20099;-71
2021/11/18 04:19:29;;;;;;;29.15;14.63;;;;;;;;;;5095324;28;20028;-71
2021/11/18 04:21:56;;;;;;;40.22;15.75;;;;;;;;;;5077534;28;20028;-71
2021/11/18 04:24:24;;;;;;;37.05;11.93;;;;;;;;;;5093019;28;20031;-71
2021/11/18 04:26:51;;;;;;;29.50;14.65;;;;;;;;;;5093088;28;20098;-71
2021/11/18 04:29:20;;;;;;;40.63;14.27;;;;;;;;;;5092835;28;20143;-71
2021/11/18 04:31:46;;;;;;;22.63;9.27;;;;;;;;;;5093572;28;20012;-71
2021/11/18 04:34:13;;;;;;;38.25;12.52;;;;;;;;;;5092956;28;20031;-71
2021/11/18 04:36:42;;;;;;;30.58;14.23;;;;;;;;;;5093381;28;20073;-71
2021/11/18 04:39:08;;;;;;;51.67;15.02;;;;;;;;;;5092788;28;20030;-73
2021/11/18 04:41:35;;;;;;;39.33;15.00;;;;;;;;;;5094229;28;20012;-72
2021/11/18 04:44:05;;;;;;;53.75;16.77;;;;;;;;;;5078790;28;20158;-71
2021/11/18 04:46:32;;;;;;;44.10;14.80;;;;;;;;;;5093533;28;20016;-71
2021/11/18 04:48:59;;;;;;;34.92;14.60;;;;;;;;;;5092020;28;20035;-73
2021/11/18 04:51:26;;;;;;;38.20;12.30;;;;;;;;;;5093758;28;20031;-71
2021/11/18 04:53:52;;;;;;;43.67;11.43;;;;;;;;;;5094198;28;20016;-71
2021/11/18 04:56:20;;;;;;;40.85;11.73;;;;;;;;;;5095690;28;20345;-72
2021/11/18 04:58:50;;;;;;;34.13;11.50;;;;;;;;;;5094284;28;20361;-71
2021/11/18 05:01:17;;;;;;;39.63;11.80;;;;;;;;;;5095261;28;20425;-71
2021/11/18 05:03:43;;;;;;;33.58;10.70;;;;;;;;;;5093234;28;20394;-71
2021/11/18 05:06:09;;;;;;;46.60;15.18;;;;;;;;;;5097151;28;20020;-73
2021/11/18 05:08:35;;;;;;;49.65;19.38;;;;;;;;;;5098763;28;20032;-70
2021/11/18 05:11:02;;;;;;;55.03;23.40;;;;;;;;;;5093205;28;20515;-72
2021/11/18 05:13:30;;;;;;;61.53;24.45;;;;;;;;;;5077915;28;20376;-71
2021/11/18 05:15:58;;;;;;;60.22;27.50;;;;;;;;;;5078633;28;20020;-72
2021/11/18 05:18:26;;;;;;;58.20;24.40;;;;;;;;;;5096282;28;20069;-71
2021/11/18 05:20:52;;;;;;;56.70;24.20;;;;;;;;;;5095490;28;20012;-71
2021/11/18 05:23:18;;;;;;;56.35;26.42;;;;;;;;;;5076234;28;20040;-71
2021/11/18 05:25:44;;;;;;;49.35;24.33;;;;;;;;;;5094351;28;20012;-71
2021/11/18 05:28:13;;;;;;;71.40;29.17;;;;;;;;;;5096513;28;20236;-71
2021/11/18 05:30:40;;;;;;;66.63;30.60;;;;;;;;;;5078069;28;20023;-70
2021/11/18 05:33:08;;;;;;;77.95;31.92;;;;;;;;;;5078116;28;20196;-71
2021/11/18 05:35:34;;;;;;;81.18;31.35;;;;;;;;;;5093404;28;20016;-71
2021/11/18 05:38:01;;;;;;;67.15;27.92;;;;;;;;;;5094109;28;20034;-71
2021/11/18 05:40:31;;;;;;;87.45;32.95;;;;;;;;;;5094082;28;20018;-71
2021/11/18 05:42:59;;;;;;;44.33;16.73;;;;;;;;;;5059964;28;20032;-70
2021/11/18 05:45:44;;;;;;;55.25;17.20;;;;;;;;;;5093778;28;20027;-71
2021/11/18 05:48:13;;;;;;;45.63;16.00;;;;;;;;;;5077676;28;20016;-69
2021/11/18 05:50:48;;;;;;;41.70;16.25;;;;;;;;;;5092254;28;20437;-71
2021/11/18 05:53:15;;;;;;;58.78;13.48;;;;;;;;;;5091394;28;20024;-70
2021/11/18 05:55:42;;;;;;;39.90;12.02;;;;;;;;;;5090483;28;20438;-70
2021/11/18 05:58:08;;;;;;;54.45;14.43;;;;;;;;;;5090105;28;20110;-69
2021/11/18 06:00:35;;;;;;;50.63;17.30;;;;;;;;;;5093459;28;20489;-70
2021/11/18 06:03:01;;;;;;;44.53;13.57;;;;;;;;;;5092883;28;20440;-70
2021/11/18 06:05:28;;;;;;;37.50;11.38;;;;;;;;;;5076268;28;20415;-71
2021/11/18 06:07:55;;;;;;;52.35;13.48;;;;;;;;;;5094483;28;20039;-70
2021/11/18 06:10:22;;;;;;;29.25;10.13;;;;;;;;;;5076341;28;20065;-70
2021/11/18 06:12:49;;;;;;;45.25;10.93;;;;;;;;;;5091526;28;20371;-70
2021/11/18 06:15:15;;;;;;;37.35;12.60;;;;;;;;;;5094172;28;20366;-70
2021/11/18 06:17:42;;;;;;;49.15;12.88;;;;;;;;;;5092410;28;20020;-70
2021/11/18 06:20:09;;;;;;;41.80;9.93;;;;;;;;;;5093768;28;20036;-70
2021/11/18 06:22:35;;;;;;;45.28;11.10;;;;;;;;;;5094458;28;20047;-73
2021/11/18 06:25:05;;;;;;;39.58;7.95;;;;;;;;;;5091642;28;20052;-72
2021/11/18 06:27:38;;;;;;;38.38;10.38;;;;;;;;;;5094142;28;20020;-72
2021/11/18 06:30:06;;;;;;;53.42;10.75;;;;;;;;;;5093855;28;20054;-71
2021/11/18 06:32:32;;;;;;;25.30;8.07;;;;;;;;;;5095073;28;20042;-71
2021/11/18 06:34:59;;;;;;;44.42;11.18;;;;;;;;;;5093872;28;20016;-71
2021/11/18 06:37:25;;;;;;;34.13;9.93;;;;;;;;;;5077292;28;20035;-71
2021/11/18 06:39:51;;;;;;;41.58;10.93;;;;;;;;;;5095509;28;20039;-71
2021/11/18 06:42:18;;;;;;;37.00;10.05;;;;;;;;;;5094023;28;20028;-71
2021/11/18 06:44:44;;;;;;;30.23;10.30;;;;;;;;;;5093714;28;20027;-70
2021/11/18 06:47:10;;;;;;;34.67;9.07;;;;;;;;;;5092948;28;20020;-71
2021/11/18 06:49:36;;;;;;;38.60;10.02;;;;;;;;;;5075276;28;20016;-69
2021/11/18 06:52:04;;;;;;;36.22;11.82;;;;;;;;;;5094454;28;20016;-70
2021/11/18 06:54:31;;;;;;;32.88;10.85;;;;;;;;;;5077351;28;20020;-71
2021/11/18 06:56:57;;;;;;;31.27;8.43;;;;;;;;;;5076793;28;20023;-70
2021/11/18 06:59:24;;;;;;;34.42;9.50;;;;;;;;;;5095760;28;20024;-70
2021/11/18 07:01:50;;;;;;;38.97;12.48;;;;;;;;;;5094346;28;20012;-71
2021/11/18 07:04:16;;;;;;;44.88;10.75;;;;;;;;;;5092067;28;20433;-70
2021/11/18 07:06:43;;;;;;;60.38;12.85;;;;;;;;;;5092751;28;20082;-70
2021/11/18 07:09:10;;;;;;;27.63;7.90;;;;;;;;;;5094656;28;20432;-71
2021/11/18 07:11:36;;;;;;;38.28;9.90;;;;;;;;;;5094461;28;20032;-71
2021/11/18 07:14:03;;;;;;;48.08;10.45;;;;;;;;;;5094456;28;20341;-71
2021/11/18 07:16:32;;;;;;;30.52;10.10;;;;;;;;;;5094198;28;20095;-70
2021/11/18 07:19:05;;;;;;;37.28;10.32;;;;;;;;;;5080337;28;20043;-70
2021/11/18 07:21:33;;;;;;;29.15;9.15;;;;;;;;;;5098511;28;20097;-69
2021/11/18 07:24:02;;;;;;;42.35;11.57;;;;;;;;;;5096558;28;20487;-69
2021/11/18 07:26:29;;;;;;;46.25;13.45;;;;;;;;;;5096965;28;20023;-71
2021/11/18 07:28:55;;;;;;;37.58;15.88;;;;;;;;;;5097626;28;20111;-70
2021/11/18 07:31:21;;;;;;;49.55;14.88;;;;;;;;;;5096097;28;20085;-70
2021/11/18 07:33:48;;;;;;;29.77;11.35;;;;;;;;;;5096873;28;20023;-70
2021/11/18 07:36:14;;;;;;;43.92;14.60;;;;;;;;;;5096689;28;20015;-70
2021/11/18 07:38:40;;;;;;;39.00;13.45;;;;;;;;;;5098110;28;20047;-68
2021/11/18 07:41:07;;;;;;;40.92;14.57;;;;;;;;;;5095431;28;20065;-69
2021/11/18 07:43:35;;;;;;;30.65;12.02;;;;;;;;;;5097185;28;20116;-68
2021/11/18 07:46:02;;;;;;;28.17;9.32;;;;;;;;;;5095852;28;20452;-70
2021/11/18 07:48:28;;;;;;;46.28;14.27;;;;;;;;;;5095995;28;20398;-69
2021/11/18 07:50:55;;;;;;;47.10;13.45;;;;;;;;;;5100995;28;20380;-70
2021/11/18 07:53:22;;;;;;;42.08;14.95;;;;;;;;;;5080182;28;20073;-69
2021/11/18 07:55:48;;;;;;;40.65;14.02;;;;;;;;;;5096164;28;20416;-69
2021/11/18 07:58:15;;;;;;;61.67;15.68;;;;;;;;;;5097117;28;20020;-69
2021/11/18 08:00:42;;;;;;;31.30;12.80;;;;;;;;;;5097278;28;20016;-69
2021/11/18 08:03:16;;;;;;;37.78;13.80;;;;;;;;;;5096971;28;20032;-69
2021/11/18 08:05:42;;;;;;;43.63;14.10;;;;;;;;;;5096819;28;20008;-69
2021/11/18 08:08:08;;;;;;;39.65;13.35;;;;;;;;;;5097016;28;20489;-69
2021/11/18 08:10:35;;;;;;;45.03;16.25;;;;;;;;;;5097910;28;20063;-69
2021/11/18 08:13:01;;;;;;;44.35;14.13;;;;;;;;;;5096711;28;20027;-69
2021/11/18 08:15:27;;;;;;;34.30;11.40;;;;;;;;;;5096687;28;20429;-69
2021/11/18 08:17:53;;;;;;;47.85;12.70;;;;;;;;;;5097388;28;20024;-69
2021/11/18 08:20:20;;;;;;;40.47;11.98;;;;;;;;;;5097136;28;20023;-69
2021/11/18 08:22:53;;;;;;;32.15;10.90;;;;;;;;;;5096827;28;20020;-69
2021/11/18 08:25:24;;;;;;;34.05;10.15;;;;;;;;;;5098357;28;20110;-69
2021/11/18 08:27:50;;;;;;;35.45;10.63;;;;;;;;;;5096132;28;20016;-69
2021/11/18 08:30:21;;;;;;;30.83;10.13;;;;;;;;;;5097926;28;20024;-69
2021/11/18 08:32:50;;;;;;;34.20;11.07;;;;;;;;;;5096725;28;20012;-69
2021/11/18 08:35:17;;;;;;;35.70;8.40;;;;;;;;;;5097470;28;20031;-70
2021/11/18 08:37:46;;;;;;;32.08;9.93;;;;;;;;;;5096605;28;20068;-69
2021/11/18 08:40:18;;;;;;;32.22;9.70;;;;;;;;;;5097295;28;20035;-70
2021/11/18 08:42:45;;;;;;;24.92;10.70;;;;;;;;;;5096714;28;20016;-69
2021/11/18 08:45:12;;;;;;;26.05;8.63;;;;;;;;;;5096869;28;20039;-70
2021/11/18 08:47:38;;;;;;;45.17;10.77;;;;;;;;;;5098039;28;20020;-69
2021/11/18 08:50:07;;;;;;;34.63;12.18;;;;;;;;;;5096298;28;20401;-70
2021/11/18 08:52:35;;;;;;;40.50;11.82;;;;;;;;;;5097504;28;20020;-70
2021/11/18 08:55:02;;;;;;;30.65;11.55;;;;;;;;;;5096425;28;20043;-69
2021/11/18 08:57:28;;;;;;;43.33;12.90;;;;;;;;;;5078739;28;20474;-69
2021/11/18 08:59:54;;;;;;;42.10;13.57;;;;;;;;;;5097362;28;20286;-69
2021/11/18 09:02:23;;;;;;;41.85;15.05;;;;;;;;;;5095844;28;20498;-69
2021/11/18 09:04:49;;;;;;;35.05;11.85;;;;;;;;;;5096433;28;20032;-70
2021/11/18 09:07:16;;;;;;;42.08;14.27;;;;;;;;;;5096946;28;20085;-69
2021/11/18 09:09:42;;;;;;;41.22;13.63;;;;;;;;;;5096591;28;20031;-69
2021/11/18 09:12:09;;;;;;;45.03;16.40;;;;;;;;;;5096844;28;20024;-69
2021/11/18 09:14:36;;;;;;;36.17;12.35;;;;;;;;;;5095762;28;20020;-69
2021/11/18 09:17:03;;;;;;;48.53;12.38;;;;;;;;;;5097405;28;20485;-69
2021/11/18 09:19:31;;;;;;;34.50;10.05;;;;;;;;;;5097045;28;20028;-70
2021/11/18 09:21:58;;;;;;;25.17;9.07;;;;;;;;;;5096403;28;20020;-70
2021/11/18 09:24:27;;;;;;;38.53;10.55;;;;;;;;;;5096575;28;20039;-70
2021/11/18 09:26:55;;;;;;;34.22;10.90;;;;;;;;;;5079040;28;20020;-70
2021/11/18 09:29:22;;;;;;;30.63;11.38;;;;;;;;;;5097090;28;20165;-70
2021/11/18 09:31:48;;;;;;;36.00;11.88;;;;;;;;;;5097426;28;20464;-70
2021/11/18 09:34:14;;;;;;;32.05;10.65;;;;;;;;;;5097389;28;20051;-71
2021/11/18 09:36:40;;;;;;;30.30;10.55;;;;;;;;;;5097422;28;20028;-70
2021/11/18 09:39:07;;;;;;;30.13;11.43;;;;;;;;;;5097259;28;20052;-70
2021/11/18 09:41:46;;;;;;;41.78;12.43;;;;;;;;;;5096383;28;20095;-70
2021/11/18 09:44:11;;;;;;;37.35;11.88;;;;;;;;;;5096971;28;20027;-70
2021/11/18 09:46:46;;;;;;;38.88;15.00;;;;;;;;;;5096762;28;20016;-70
2021/11/18 09:49:13;;;;;;;26.67;13.88;;;;;;;;;;5097270;28;20024;-69
2021/11/18 09:51:51;;;;;;;53.30;15.00;;;;;;;;;;5097413;28;20027;-70
2021/11/18 09:54:26;;;;;;;26.02;12.85;;;;;;;;;;5096381;28;20024;-70
2021/11/18 09:56:55;;;;;;;36.40;12.10;;;;;;;;;;5096981;28;20016;-70
2021/11/18 09:59:24;;;;;;;34.80;10.52;;;;;;;;;;5097365;28;20024;-70
2021/11/18 10:02:05;;;;;;;35.05;9.90;;;;;;;;;;5095927;28;20023;-71
2021/11/18 10:04:43;;;;;;;26.17;9.45;;;;;;;;;;5095966;28;20032;-70
2021/11/18 10:07:17;;;;;;;32.53;11.60;;;;;;;;;;5096097;28;20038;-70
2021/11/18 10:09:46;;;;;;;34.00;10.55;;;;;;;;;;5097315;28;20376;-70
2021/11/18 10:12:30;;;;;;;24.73;10.65;;;;;;;;;;5097125;28;20480;-70
2021/11/18 10:14:58;;;;;;;19.27;8.27;;;;;;;;;;5097518;28;20023;-71
2021/11/18 10:17:29;;;;;;;25.38;9.88;;;;;;;;;;5097251;28;20426;-70
2021/11/18 10:19:59;;;;;;;29.95;12.40;;;;;;;;;;5096558;28;20019;-70
2021/11/18 10:22:26;;;;;;;30.70;9.98;;;;;;;;;;5097207;28;20047;-70
2021/11/18 10:24:53;;;;;;;22.85;9.85;;;;;;;;;;5097105;28;20054;-70
2021/11/18 10:27:23;;;;;;;45.47;11.15;;;;;;;;;;5097026;28;20020;-70
2021/11/18 10:29:55;;;;;;;35.13;11.40;;;;;;;;;;5096819;28;20025;-70
2021/11/18 10:32:23;;;;;;;34.67;12.98;;;;;;;;;;5096955;28;20028;-70
2021/11/18 10:34:52;;;;;;;35.53;11.98;;;;;;;;;;5096210;28;20385;-70
2021/11/18 10:37:18;;;;;;;40.65;12.73;;;;;;;;;;5097182;28;20024;-71
2021/11/18 10:39:44;;;;;;;34.58;12.77;;;;;;;;;;5096484;28;20016;-71
2021/11/18 10:42:13;;;;;;;39.60;15.32;;;;;;;;;;5097136;28;20052;-70
2021/11/18 10:45:00;;;;;;;48.38;19.40;;;;;;;;;;5096475;28;20128;-70
2021/11/18 10:47:29;;;;;;;49.50;21.17;;;;;;;;;;5096982;28;20077;-70
2021/11/18 10:49:58;;;;;;;62.67;27.38;;;;;;;;;;5096324;28;20118;-70
2021/11/18 10:52:30;;;;;;;70.07;23.92;;;;;;;;;;5098615;28;20069;-70
2021/11/18 10:55:01;;;;;;;60.05;26.85;;;;;;;;;;5100993;28;20031;-70
2021/11/18 10:57:32;;;;;;;94.50;31.02;;;;;;;;;;5100680;28;20016;-70
2021/11/18 11:00:16;;;;;;;76.45;26.95;;;;;;;;;;5100600;28;20023;-70
2021/11/18 11:02:42;;;;;;;76.90;24.77;;;;;;;;;;5100981;28;20341;-70
2021/11/18 11:05:36;;;;;;;49.50;21.42;;;;;;;;;;5100884;28;20032;-70
2021/11/18 11:08:20;;;;;;;52.65;20.02;;;;;;;;;;5099113;28;20047;-70
2021/11/18 11:10:47;;;;;;;62.70;22.20;;;;;;;;;;5100805;28;20463;-70
2021/11/18 11:13:32;;;;;;;56.42;24.67;;;;;;;;;;5099893;28;20349;-70
2021/11/18 11:16:04;;;;;;;59.97;23.42;;;;;;;;;;5100801;28;20107;-70
2021/11/18 11:18:37;;;;;;;62.22;25.60;;;;;;;;;;5101177;28;20024;-70
2021/11/18 11:21:06;;;;;;;71.97;31.05;;;;;;;;;;5099086;28;20035;-70
2021/11/18 11:23:34;;;;;;;58.45;24.63;;;;;;;;;;5099591;28;20472;-70
2021/11/18 11:26:19;;;;;;;62.47;26.85;;;;;;;;;;5100873;28;20054;-70
2021/11/18 11:28:57;;;;;;;52.40;23.08;;;;;;;;;;5099479;28;20020;-70
2021/11/18 11:31:34;;;;;;;57.97;24.63;;;;;;;;;;5100372;28;20414;-70
2021/11/18 11:34:03;;;;;;;60.25;24.52;;;;;;;;;;5100509;28;20016;-70
2021/11/18 11:36:41;;;;;;;65.15;26.92;;;;;;;;;;5099940;28;20012;-70
2021/11/18 11:39:10;;;;;;;79.13;30.52;;;;;;;;;;5100389;28;20012;-70
2021/11/18 11:41:54;;;;;;;57.65;26.58;;;;;;;;;;5100402;28;20024;-70
2021/11/18 11:44:38;;;;;;;59.17;23.40;;;;;;;;;;5100420;28;20028;-70
2021/11/18 11:47:06;;;;;;;51.83;24.45;;;;;;;;;;5099130;28;20043;-70
2021/11/18 11:49:36;;;;;;;64.35;23.08;;;;;;;;;;5100344;28;20383;-70
2021/11/18 11:52:08;;;;;;;59.92;22.98;;;;;;;;;;5098843;28;20036;-70
2021/11/18 11:54:52;;;;;;;61.85;26.55;;;;;;;;;;5100177;28;20023;-70
2021/11/18 11:57:24;;;;;;;48.95;23.25;;;;;;;;;;5099758;28;20022;-71
2021/11/18 11:59:57;;;;;;;55.53;23.25;;;;;;;;;;5099464;28;20073;-71
2021/11/18 12:02:36;;;;;;;43.03;19.77;;;;;;;;;;5099563;28;20020;-71
2021/11/18 12:05:06;;;;;;;53.40;19.98;;;;;;;;;;5099677;28;20040;-70
2021/11/18 12:07:41;;;;;;;63.08;24.20;;;;;;;;;;5100295;28;20028;-70
2021/11/18 12:10:07;;;;;;;55.72;20.73;;;;;;;;;;5099264;28;20020;-71
2021/11/18 12:12:34;;;;;;;57.15;23.60;;;;;;;;;;5098758;28;20023;-70
2021/11/18 12:15:02;;;;;;;48.58;20.17;;;;;;;;;;5098606;28;20398;-70
2021/11/18 12:17:46;;;;;;;63.40;27.27;;;;;;;;;;5099265;28;20016;-70
2021/11/18 12:20:14;;;;;;;49.80;23.55;;;;;;;;;;5098567;28;20045;-70
2021/11/18 12:22:40;;;;;;;43.17;19.92;;;;;;;;;;5099404;28;20016;-70
2021/11/18 12:25:09;;;;;;;42.83;21.63;;;;;;;;;;5099367;28;20043;-70
2021/11/18 12:27:37;;;;;;;46.20;19.98;;;;;;;;;;5099091;28;20106;-70
2021/11/18 12:30:22;;;;;;;45.97;20.58;;;;;;;;;;5081429;28;20426;-70
2021/11/18 12:33:05;;;;;;;40.67;16.60;;;;;;;;;;5099434;28;20028;-71
2021/11/18 12:35:44;;;;;;;62.03;22.45;;;;;;;;;;5098902;28;20016;-70
2021/11/18 12:38:45;;;;;;;40.95;20.13;;;;;;;;;;5098924;28;20024;-70
2021/11/18 12:41:11;;;;;;;42.88;18.25;;;;;;;;;;5057002;28;20465;-70
2021/11/18 12:43:43;;;;;;;45.30;20.17;;;;;;;;;;5090643;28;20040;-70
2021/11/18 12:46:21;;;;;;;45.05;22.33;;;;;;;;;;5099183;28;20027;-70
2021/11/18 12:48:54;;;;;;;29.25;15.40;;;;;;;;;;5097940;28;20016;-70
2021/11/18 12:51:23;;;;;;;43.45;14.98;;;;;;;;;;5098595;28;20418;-70
2021/11/18 12:54:17;;;;;;;49.97;21.52;;;;;;;;;;5098874;28;20024;-70
2021/11/18 12:56:52;;;;;;;50.05;20.85;;;;;;;;;;5093677;28;20028;-70
2021/11/18 12:59:37;;;;;;;52.90;21.58;;;;;;;;;;5099024;28;20102;-70
2021/11/18 13:02:07;;;;;;;41.95;19.35;;;;;;;;;;5098854;28;20047;-70
2021/11/18 13:04:39;;;;;;;52.45;21.10;;;;;;;;;;5099011;28;20032;-70
2021/11/18 13:07:07;;;;;;;49.65;21.35;;;;;;;;;;5098191;28;20024;-70
2021/11/18 13:09:56;;;;;;;64.18;26.65;;;;;;;;;;5098174;28;20110;-70
2021/11/18 13:12:26;;;;;;;39.10;17.88;;;;;;;;;;5093537;28;20059;-70
2021/11/18 13:15:00;;;;;;;44.08;22.35;;;;;;;;;;5097100;28;20127;-70
2021/11/18 13:17:32;;;;;;;50.03;22.70;;;;;;;;;;5098082;28;20023;-70
2021/11/18 13:20:03;;;;;;;53.90;24.25;;;;;;;;;;5097240;28;20028;-70
2021/11/18 13:22:40;;;;;;;47.00;20.15;;;;;;;;;;5098075;28;20099;-70
2021/11/18 13:25:06;;;;;;;52.03;23.27;;;;;;;;;;5098358;28;20064;-70
2021/11/18 13:27:54;;;;;;;55.40;24.13;;;;;;;;;;5098320;28;20055;-70
2021/11/18 13:30:26;;;;;;;54.25;23.27;;;;;;;;;;5098274;28;20103;-70
2021/11/18 13:32:53;;;;;;;57.83;26.30;;;;;;;;;;5097966;28;20016;-70
2021/11/18 13:35:28;;;;;;;60.15;27.52;;;;;;;;;;5098168;28;20020;-70
2021/11/18 13:38:03;;;;;;;60.65;25.42;;;;;;;;;;5098236;28;20043;-70
2021/11/18 13:40:30;;;;;;;55.88;26.40;;;;;;;;;;5098316;28;20046;-70
2021/11/18 13:42:59;;;;;;;68.63;30.05;;;;;;;;;;5098221;28;20030;-70
2021/11/18 13:45:27;;;;;;;61.35;26.13;;;;;;;;;;5080012;28;20035;-70
2021/11/18 13:47:56;;;;;;;58.00;24.60;;;;;;;;;;5097740;28;20023;-70
2021/11/18 13:50:32;;;;;;;58.50;27.65;;;;;;;;;;5096768;28;20023;-70
2021/11/18 13:53:13;;;;;;;59.30;25.73;;;;;;;;;;5097392;28;20016;-70
2021/11/18 13:55:51;;;;;;;59.60;25.80;;;;;;;;;;5097887;28;20027;-70
2021/11/18 13:58:23;;;;;;;64.95;28.63;;;;;;;;;;5097826;28;20022;-70
2021/11/18 14:00:51;;;;;;;60.72;26.27;;;;;;;;;;5097847;28;20020;-70
2021/11/18 14:03:17;;;;;;;69.90;24.90;;;;;;;;;;5097854;28;20015;-71
2021/11/18 14:05:48;;;;;;;54.80;25.13;;;;;;;;;;5097834;28;20028;-70
2021/11/18 14:08:19;;;;;;;54.17;25.55;;;;;;;;;;5098260;28;20032;-70
2021/11/18 14:10:47;;;;;;;49.30;22.63;;;;;;;;;;5096326;28;20024;-70
2021/11/18 14:13:33;;;;;;;49.15;24.13;;;;;;;;;;5095986;28;20020;-70
2021/11/18 14:16:02;;;;;;;49.67;24.83;;;;;;;;;;5093964;28;20019;-70
2021/11/18 14:18:30;;;;;;;59.55;26.98;;;;;;;;;;5095614;28;20058;-70
2021/11/18 14:21:02;;;;;;;67.90;28.10;;;;;;;;;;5094601;28;20024;-70
2021/11/18 14:23:30;;;;;;;67.45;27.80;;;;;;;;;;5096264;28;20036;-70
2021/11/18 14:26:05;;;;;;;73.95;29.75;;;;;;;;;;5095451;28;20016;-70
2021/11/18 14:28:39;;;;;;;66.35;33.22;;;;;;;;;;5096873;28;20012;-70
2021/11/18 14:31:24;;;;;;;71.70;31.83;;;;;;;;;;5096166;28;20016;-70